Terminal Aerodrome Forecast
Issued by NWS

Home | Current Version | Previous Version | Text Only | Print | Product List | Glossary On
Versions: 1 2 3 4 5 6 7 8 9 10 11 12 13 14 15 16 17 18 19 20 21
000
FTUS43 KDLH 211723 AAB
TAFBRD
TAF AMD
KBRD 211723Z 2117/2218 17011G19KT P6SM OVC009
     FM212100 18009KT P6SM -SHRA VCTS OVC008CB
     FM220000 25008KT P6SM VCSH OVC020
     FM220200 25008KT P6SM VCSH BKN050
     FM220600 26006KT P6SM SCT200=

USA.gov is the U.S. government's official web portal to all federal, state and local government web resources and services.